Time;durP1;ratioP1;P1;durP2;ratioP2;P2;SDS_P1;SDS_P2;PMS_P1;PMS_P2;Temp;Humidity;BMP_temperature;BMP_pressure;BME280_temperature;BME280_humidity;BME280_pressure;Samples;Min_cycle;Max_cycle;Signal;HPM_P1;HPM_P2
2023/04/19 00:01:57;;;;;;;9.82;5.15;;;;;;;5.21;64.11;102433.78;5039071;28;20037;-48
2023/04/19 00:04:24;;;;;;;11.57;4.95;;;;;;;5.24;64.25;102428.56;5034245;28;20384;-48
2023/04/19 00:06:50;;;;;;;9.48;4.90;;;;;;;5.22;64.11;102425.06;5032606;28;20029;-47
2023/04/19 00:09:16;;;;;;;18.77;5.40;;;;;;;5.23;64.17;102426.81;5034198;28;20105;-47
2023/04/19 00:11:41;;;;;;;8.70;4.45;;;;;;;5.31;63.06;102430.34;5032188;28;20133;-47
2023/04/19 00:14:06;;;;;;;7.55;4.38;;;;;;;5.39;62.35;102432.09;5026988;28;20461;-47
2023/04/19 00:16:32;;;;;;;8.43;4.45;;;;;;;5.38;62.67;102422.47;5034461;28;20057;-48
2023/04/19 00:18:57;;;;;;;8.77;4.43;;;;;;;5.38;61.89;102419.84;5032994;28;20037;-47
2023/04/19 00:21:23;;;;;;;10.30;4.78;;;;;;;5.42;61.91;102422.47;5022180;28;20025;-46
2023/04/19 00:23:48;;;;;;;8.77;4.40;;;;;;;5.44;61.25;102420.75;5031506;28;20069;-47
2023/04/19 00:26:14;;;;;;;10.63;4.28;;;;;;;5.41;61.24;102419.84;5028311;28;20036;-48
2023/04/19 00:28:40;;;;;;;12.75;3.97;;;;;;;5.44;60.53;102412.00;5029843;28;20068;-47
2023/04/19 00:31:06;;;;;;;9.23;4.30;;;;;;;5.46;60.47;102415.50;5033344;28;20049;-48
2023/04/19 00:33:32;;;;;;;9.80;4.07;;;;;;;5.45;60.24;102409.38;5040558;28;20067;-46
2023/04/19 00:35:58;;;;;;;8.57;4.03;;;;;;;5.51;58.94;102411.16;5029980;28;20354;-48
2023/04/19 00:38:24;;;;;;;7.30;4.13;;;;;;;5.53;58.82;102414.66;5031780;28;20037;-47
2023/04/19 00:40:49;;;;;;;8.00;3.65;;;;;;;5.56;58.22;102412.03;5032040;28;20057;-48
2023/04/19 00:43:18;;;;;;;15.10;3.85;;;;;;;5.59;56.90;102405.91;5030450;28;20075;-47
2023/04/19 00:45:44;;;;;;;8.75;3.63;;;;;;;5.60;56.52;102403.28;5039174;28;20070;-46
2023/04/19 00:48:11;;;;;;;9.27;3.63;;;;;;;5.66;55.28;102390.19;5030557;28;20096;-47
2023/04/19 00:50:36;;;;;;;8.80;4.13;;;;;;;5.64;55.91;102402.44;5033766;28;20037;-47
2023/04/19 00:53:02;;;;;;;8.30;3.60;;;;;;;5.64;55.62;102405.06;5031327;28;20040;-47
2023/04/19 00:55:28;;;;;;;9.05;3.47;;;;;;;5.62;55.95;102398.94;5033295;28;20509;-48
2023/04/19 00:57:53;;;;;;;8.15;3.33;;;;;;;5.67;54.96;102391.94;5032622;28;20025;-48
2023/04/19 01:00:19;;;;;;;6.93;3.72;;;;;;;5.68;55.07;102388.44;5031691;28;20026;-47
2023/04/19 01:02:45;;;;;;;5.75;3.10;;;;;;;5.76;54.03;102395.44;5031952;28;21720;-47
2023/04/19 01:05:10;;;;;;;7.00;3.00;;;;;;;5.75;53.24;102394.56;5035006;28;21480;-47
2023/04/19 01:07:36;;;;;;;7.35;3.22;;;;;;;5.72;53.08;102402.41;5030656;28;20109;-48
2023/04/19 01:10:01;;;;;;;6.05;3.00;;;;;;;5.74;52.34;102397.16;5025915;28;20102;-47
2023/04/19 01:12:27;;;;;;;7.57;2.92;;;;;;;5.73;52.43;102398.06;5023700;28;20052;-47
2023/04/19 01:14:52;;;;;;;7.05;2.92;;;;;;;5.68;53.23;102398.91;5027883;28;20025;-47
2023/04/19 01:17:18;;;;;;;6.05;3.10;;;;;;;5.64;53.18;102405.06;5027011;28;20052;-47
2023/04/19 01:19:44;;;;;;;6.32;3.03;;;;;;;5.64;52.48;102397.19;5026716;28;20033;-47
2023/04/19 01:22:15;;;;;;;9.95;3.50;;;;;;;5.60;52.83;102402.41;5031749;28;20032;-47
2023/04/19 01:24:41;;;;;;;4.57;2.58;;;;;;;5.57;51.89;102395.41;5033211;28;20458;-47
2023/04/19 01:27:06;;;;;;;12.50;2.88;;;;;;;5.49;52.92;102387.53;5040393;28;20040;-46
2023/04/19 01:29:32;;;;;;;7.47;3.28;;;;;;;5.55;51.43;102386.66;5033643;28;20028;-46
2023/04/19 01:31:57;;;;;;;4.32;2.83;;;;;;;5.55;51.87;102397.16;5032192;28;20588;-46
2023/04/19 01:34:23;;;;;;;14.98;3.65;;;;;;;5.49;51.94;102397.13;5028908;28;20033;-46
2023/04/19 01:36:48;;;;;;;7.68;2.65;;;;;;;5.45;51.86;102395.41;5029278;28;20057;-46
2023/04/19 01:39:14;;;;;;;6.97;2.67;;;;;;;5.47;51.45;102394.50;5036275;28;20096;-47
2023/04/19 01:41:39;;;;;;;6.85;4.00;;;;;;;5.46;51.59;102391.88;5031368;28;20517;-46
2023/04/19 01:44:05;;;;;;;6.50;3.67;;;;;;;5.43;51.50;102389.28;5032745;28;20067;-47
2023/04/19 01:46:30;;;;;;;8.38;4.22;;;;;;;5.37;52.08;102381.41;5035693;28;20022;-46
2023/04/19 01:48:56;;;;;;;6.22;3.55;;;;;;;5.31;52.55;102388.38;5020639;28;20443;-46
2023/04/19 01:51:21;;;;;;;5.15;3.15;;;;;;;5.26;52.10;102398.00;5032957;28;20118;-49
2023/04/19 01:53:53;;;;;;;4.32;3.05;;;;;;;5.11;53.20;102395.31;5040106;28;20124;-47
2023/04/19 01:56:20;;;;;;;5.47;3.10;;;;;;;5.06;52.91;102376.06;5034684;28;20239;-48
2023/04/19 01:58:46;;;;;;;7.60;3.10;;;;;;;5.06;53.02;102386.56;5036293;28;20068;-47
2023/04/19 02:01:11;;;;;;;6.38;3.10;;;;;;;4.90;53.67;102381.25;5036017;28;20080;-46
2023/04/19 02:03:39;;;;;;;6.90;3.15;;;;;;;4.87;53.64;102378.63;5035830;28;20041;-46
2023/04/19 02:06:05;;;;;;;7.88;2.92;;;;;;;4.80;54.19;102379.47;5027740;28;20034;-47
2023/04/19 02:08:30;;;;;;;5.28;2.97;;;;;;;4.76;54.56;102377.72;5028676;28;20026;-48
2023/04/19 02:10:55;;;;;;;6.28;3.03;;;;;;;4.74;54.60;102374.19;5035747;28;20129;-46
2023/04/19 02:13:21;;;;;;;5.65;3.50;;;;;;;4.73;54.40;102377.69;5037454;28;20323;-46
2023/04/19 02:15:46;;;;;;;4.18;2.70;;;;;;;4.68;54.65;102384.66;5036004;28;20041;-47
2023/04/19 02:18:12;;;;;;;9.55;3.25;;;;;;;4.63;54.92;102371.53;5036115;28;20020;-47
2023/04/19 02:20:38;;;;;;;6.55;3.42;;;;;;;4.55;55.04;102379.34;5042006;28;20026;-48
2023/04/19 02:23:03;;;;;;;9.20;2.97;;;;;;;4.52;55.41;102374.09;5037116;28;20032;-48
2023/04/19 02:25:28;;;;;;;8.18;3.03;;;;;;;4.52;55.53;102374.09;5037179;28;20441;-48
2023/04/19 02:27:54;;;;;;;7.65;3.47;;;;;;;4.53;55.78;102378.47;5025450;28;20029;-47
2023/04/19 02:30:19;;;;;;;4.30;3.20;;;;;;;4.46;56.24;102379.28;5028343;28;20026;-49
2023/04/19 02:32:47;;;;;;;9.43;3.83;;;;;;;4.37;56.83;102379.25;5037318;28;20021;-47
2023/04/19 02:35:12;;;;;;;5.95;3.38;;;;;;;4.30;57.03;102382.66;5041635;28;20397;-47
2023/04/19 02:37:38;;;;;;;5.07;3.30;;;;;;;4.20;58.00;102380.00;5036453;28;20044;-47
2023/04/19 02:40:04;;;;;;;8.13;3.90;;;;;;;4.17;58.49;102373.88;5040201;28;20033;-47
2023/04/19 02:42:29;;;;;;;5.90;3.33;;;;;;;4.01;59.16;102381.63;5037198;28;20449;-47
2023/04/19 02:44:55;;;;;;;9.75;3.85;;;;;;;3.89;59.67;102375.41;5034524;28;20026;-47
2023/04/19 02:47:20;;;;;;;6.05;3.00;;;;;;;3.83;60.39;102376.25;5040745;28;20032;-47
2023/04/19 02:49:46;;;;;;;4.13;2.85;;;;;;;3.77;60.95;102382.28;5037535;28;20030;-47
2023/04/19 02:52:11;;;;;;;8.77;3.55;;;;;;;3.68;60.91;102380.47;5027992;28;20069;-47
2023/04/19 02:54:36;;;;;;;7.05;3.60;;;;;;;3.67;60.98;102380.47;5027589;28;20389;-47
2023/04/19 02:57:02;;;;;;;4.78;3.25;;;;;;;3.68;60.87;102377.00;5020727;28;20029;-47
2023/04/19 02:59:27;;;;;;;9.30;4.15;;;;;;;3.64;60.74;102375.19;5041097;28;20361;-46
2023/04/19 03:01:52;;;;;;;6.22;3.25;;;;;;;3.58;61.23;102369.91;5039979;28;20033;-47
2023/04/19 03:04:18;;;;;;;7.78;3.70;;;;;;;3.55;61.74;102365.53;5023774;28;20028;-48
2023/04/19 03:06:43;;;;;;;8.63;2.80;;;;;;;3.58;61.81;102365.56;5032607;28;20022;-48
2023/04/19 03:09:09;;;;;;;5.13;3.13;;;;;;;3.52;61.98;102367.25;5023740;28;20128;-47
2023/04/19 03:11:35;;;;;;;6.13;3.22;;;;;;;3.48;62.14;102364.59;5039464;28;20034;-46
2023/04/19 03:14:01;;;;;;;9.77;3.50;;;;;;;3.42;62.93;102374.13;5036893;28;20025;-48
2023/04/19 03:16:29;;;;;;;10.50;3.63;;;;;;;3.20;63.84;102362.56;5038869;28;20049;-45
2023/04/19 03:18:54;;;;;;;9.13;3.50;;;;;;;3.10;64.38;102359.84;5035905;28;20029;-47
2023/04/19 03:21:20;;;;;;;13.02;3.72;;;;;;;3.09;64.84;102359.81;5035982;28;20056;-47
2023/04/19 03:23:45;;;;;;;6.22;3.40;;;;;;;2.96;65.64;102353.59;5028432;28;20104;-47
2023/04/19 03:26:10;;;;;;;10.05;4.03;;;;;;;3.08;64.84;102352.84;5026871;28;20483;-47
2023/04/19 03:28:36;;;;;;;6.60;3.25;;;;;;;3.09;65.48;102339.81;5025561;28;20072;-47
2023/04/19 03:31:01;;;;;;;7.15;3.05;;;;;;;3.18;64.84;102341.63;5028895;28;20138;-47
2023/04/19 03:33:27;;;;;;;10.02;3.08;;;;;;;3.11;65.40;102335.47;5028409;28;20021;-47
2023/04/19 03:35:52;;;;;;;12.50;4.00;;;;;;;3.15;65.27;102338.13;5023839;28;20025;-47
2023/04/19 03:38:17;;;;;;;10.65;3.65;;;;;;;3.03;66.42;102334.50;5029333;28;20037;-46
2023/04/19 03:40:43;;;;;;;10.15;3.15;;;;;;;2.82;67.35;102339.50;5035634;28;20115;-47
2023/04/19 03:43:08;;;;;;;5.72;3.53;;;;;;;2.73;67.01;102335.91;5028059;28;20025;-48
2023/04/19 03:45:34;;;;;;;9.05;3.10;;;;;;;2.68;67.46;102327.16;5035260;28;20376;-46
2023/04/19 03:47:59;;;;;;;11.13;3.53;;;;;;;2.64;67.30;102330.56;5040028;28;20079;-46
2023/04/19 03:50:25;;;;;;;6.93;4.07;;;;;;;2.60;67.80;102331.41;5042879;28;20495;-46
2023/04/19 03:52:50;;;;;;;7.72;3.17;;;;;;;2.54;68.52;102326.09;5039255;28;20107;-48
2023/04/19 03:55:16;;;;;;;8.32;3.20;;;;;;;2.49;68.40;102331.25;5040254;28;20060;-46
2023/04/19 03:57:41;;;;;;;7.43;4.05;;;;;;;2.45;68.96;102328.59;5038315;28;20036;-46
2023/04/19 04:00:07;;;;;;;8.02;3.38;;;;;;;2.39;69.42;102325.03;5027460;28;20428;-47
2023/04/19 04:02:35;;;;;;;10.57;3.88;;;;;;;2.30;70.25;102335.34;5035805;28;20036;-46
2023/04/19 04:05:00;;;;;;;7.15;3.38;;;;;;;2.31;69.74;102331.88;5036998;28;20051;-47
2023/04/19 04:07:26;;;;;;;9.38;3.47;;;;;;;2.23;70.29;102328.28;5040037;28;20040;-46
2023/04/19 04:09:51;;;;;;;8.40;3.92;;;;;;;2.20;70.33;102328.25;5038065;28;20036;-46
2023/04/19 04:12:17;;;;;;;10.55;3.60;;;;;;;2.20;70.70;102325.63;5023548;28;20033;-47
2023/04/19 04:14:42;;;;;;;8.38;3.38;;;;;;;2.28;70.27;102326.63;5036274;28;20033;-46
2023/04/19 04:17:07;;;;;;;6.13;4.22;;;;;;;2.28;70.74;102334.44;5053040;28;20103;-46
2023/04/19 04:19:33;;;;;;;9.10;3.92;;;;;;;2.39;71.24;102330.25;5041402;28;20033;-46
2023/04/19 04:21:58;;;;;;;7.30;4.15;;;;;;;2.45;71.59;102333.81;5038091;28;20514;-46
2023/04/19 04:24:25;;;;;;;9.38;3.50;;;;;;;2.44;71.49;102329.47;5041121;28;20025;-46
2023/04/19 04:26:50;;;;;;;8.48;4.00;;;;;;;2.39;72.26;102334.63;5033606;28;20510;-46
2023/04/19 04:29:16;;;;;;;7.50;3.85;;;;;;;2.37;72.41;102337.19;5033925;28;20156;-47
2023/04/19 04:31:41;;;;;;;7.43;3.40;;;;;;;2.41;72.48;102337.25;5033646;28;20434;-46
2023/04/19 04:34:08;;;;;;;4.72;3.25;;;;;;;2.42;72.33;102333.75;5033964;28;20070;-46
2023/04/19 04:36:35;;;;;;;6.22;3.53;;;;;;;2.38;73.25;102338.94;5049464;28;20592;-46
2023/04/19 04:39:01;;;;;;;5.40;3.47;;;;;;;2.41;72.95;102338.13;5041085;28;20021;-46
2023/04/19 04:41:26;;;;;;;9.32;4.60;;;;;;;2.35;73.13;102338.91;5039971;28;20059;-46
2023/04/19 04:43:52;;;;;;;7.60;4.22;;;;;;;2.41;73.51;102332.03;5038910;28;20024;-46
2023/04/19 04:46:17;;;;;;;9.82;4.35;;;;;;;2.38;74.05;102327.63;5040073;28;20114;-46
2023/04/19 04:48:43;;;;;;;9.77;3.60;;;;;;;2.35;74.23;102331.09;5019344;28;20025;-46
2023/04/19 04:51:08;;;;;;;7.15;3.35;;;;;;;2.44;73.25;102332.06;5033637;28;20081;-46
2023/04/19 04:53:33;;;;;;;8.38;3.70;;;;;;;2.35;73.84;102320.66;5025323;28;20034;-46
2023/04/19 04:55:59;;;;;;;11.43;3.50;;;;;;;2.36;73.96;102319.78;5026136;28;20041;-46
2023/04/19 04:58:25;;;;;;;6.78;3.38;;;;;;;2.43;73.75;102330.31;5039150;28;20039;-47
2023/04/19 05:00:50;;;;;;;8.57;3.30;;;;;;;2.46;74.05;102320.78;5038967;28;20048;-45
2023/04/19 05:03:16;;;;;;;10.00;4.72;;;;;;;2.52;74.01;102313.03;5039263;28;20028;-46
2023/04/19 05:05:41;;;;;;;7.47;3.40;;;;;;;2.56;74.19;102308.72;5041588;28;20037;-46
2023/04/19 05:08:07;;;;;;;12.55;4.60;;;;;;;2.58;73.49;102309.59;5037723;28;20112;-46
2023/04/19 05:10:32;;;;;;;6.05;3.22;;;;;;;2.60;74.06;102310.53;5039150;28;20037;-46
2023/04/19 05:12:59;;;;;;;8.45;3.90;;;;;;;2.69;73.79;102313.22;5040656;28;20041;-46
2023/04/19 05:15:25;;;;;;;5.28;3.22;;;;;;;2.73;73.72;102304.59;5050952;28;20036;-46
2023/04/19 05:17:50;;;;;;;11.82;3.55;;;;;;;2.74;74.30;102306.31;5028383;28;20025;-48
2023/04/19 05:20:16;;;;;;;8.98;3.65;;;;;;;2.80;74.01;102310.75;5038947;28;20564;-46
2023/04/19 05:22:41;;;;;;;5.38;3.03;;;;;;;2.81;74.17;102306.41;5030337;28;20029;-46
2023/04/19 05:25:08;;;;;;;6.68;3.28;;;;;;;2.89;73.45;102305.66;5025893;28;20021;-47
2023/04/19 05:27:34;;;;;;;11.73;3.92;;;;;;;2.86;73.54;102302.09;5027312;28;20033;-47
2023/04/19 05:29:59;;;;;;;7.25;3.38;;;;;;;2.89;73.92;102302.13;5026750;28;20034;-47
2023/04/19 05:32:26;;;;;;;5.60;3.55;;;;;;;2.94;73.62;102313.50;5025898;28;20450;-47
2023/04/19 05:34:51;;;;;;;16.08;4.22;;;;;;;3.01;73.55;102299.66;5026752;28;20029;-47
2023/04/19 05:37:17;;;;;;;3.83;2.72;;;;;;;3.02;73.61;102301.41;5027573;28;20594;-47
2023/04/19 05:39:42;;;;;;;8.63;4.07;;;;;;;3.11;73.46;102291.06;5028256;28;20029;-47
2023/04/19 05:42:07;;;;;;;7.28;3.72;;;;;;;3.17;73.05;102289.34;5028899;28;20079;-47
2023/04/19 05:44:33;;;;;;;5.60;3.25;;;;;;;3.24;72.93;102283.34;5026143;28;20037;-47
2023/04/19 05:46:58;;;;;;;9.73;4.22;;;;;;;3.26;72.89;102289.47;5022843;28;20464;-47
2023/04/19 05:49:24;;;;;;;9.05;4.10;;;;;;;3.30;72.44;102278.16;5038430;28;20492;-47
2023/04/19 05:51:50;;;;;;;7.60;3.17;;;;;;;3.42;72.01;102274.78;5034794;28;20041;-47
2023/04/19 05:54:16;;;;;;;4.63;3.20;;;;;;;3.52;71.37;102275.75;5040953;28;20057;-47
2023/04/19 05:56:41;;;;;;;19.48;4.45;;;;;;;3.53;71.93;102273.13;5035461;28;20028;-47
2023/04/19 05:59:07;;;;;;;8.50;3.25;;;;;;;3.62;71.30;102274.94;5040087;28;20519;-47
2023/04/19 06:01:32;;;;;;;6.68;2.88;;;;;;;3.69;71.01;102284.56;5037298;28;20038;-46
2023/04/19 06:03:59;;;;;;;6.13;3.95;;;;;;;3.70;70.90;102269.78;5041745;28;20025;-46
2023/04/19 06:06:24;;;;;;;5.57;2.80;;;;;;;3.81;70.46;102268.13;5042789;28;20032;-47
2023/04/19 06:08:50;;;;;;;4.93;2.88;;;;;;;3.87;69.94;102273.34;5039867;28;20021;-48
2023/04/19 06:11:15;;;;;;;9.38;3.40;;;;;;;3.90;69.76;102277.75;5032916;28;20034;-46
2023/04/19 06:13:42;;;;;;;7.03;3.10;;;;;;;3.92;69.72;102276.00;5042971;28;20040;-48
2023/04/19 06:16:08;;;;;;;8.10;3.65;;;;;;;3.98;69.85;102276.06;5041500;28;20032;-48
2023/04/19 06:18:33;;;;;;;8.48;2.92;;;;;;;4.07;69.60;102278.75;5036880;28;20042;-47
2023/04/19 06:20:58;;;;;;;10.18;4.32;;;;;;;4.13;69.42;102270.03;5035334;28;20033;-47
2023/04/19 06:23:24;;;;;;;8.75;3.75;;;;;;;4.25;68.44;102263.97;5032927;28;20083;-47
2023/04/19 06:25:50;;;;;;;10.38;3.92;;;;;;;4.30;67.69;102277.97;5032599;28;20041;-47
2023/04/19 06:28:15;;;;;;;7.78;3.33;;;;;;;4.39;68.18;102273.63;5032290;28;20064;-47
2023/04/19 06:30:40;;;;;;;8.00;3.22;;;;;;;4.44;67.75;102273.66;5038716;28;20120;-46
2023/04/19 06:33:06;;;;;;;6.82;3.05;;;;;;;4.49;67.68;102274.56;5042717;28;20037;-46
2023/04/19 06:35:32;;;;;;;9.60;2.88;;;;;;;4.62;66.95;102272.84;5039377;28;20029;-46
2023/04/19 06:38:00;;;;;;;11.10;2.83;;;;;;;4.71;66.53;102265.03;5042339;28;20041;-48
2023/04/19 06:40:27;;;;;;;6.68;2.95;;;;;;;4.76;64.73;102254.59;5040101;28;20495;-46
2023/04/19 06:42:53;;;;;;;7.50;3.22;;;;;;;4.83;65.91;102264.19;5040707;28;20156;-47
2023/04/19 06:45:18;;;;;;;6.60;3.30;;;;;;;4.91;65.48;102264.22;5043429;28;20488;-47
2023/04/19 06:47:44;;;;;;;5.35;2.85;;;;;;;5.08;64.94;102259.00;5043567;28;20446;-46
2023/04/19 06:50:10;;;;;;;4.97;2.38;;;;;;;5.09;64.42;102266.84;5040165;28;20044;-47
2023/04/19 06:52:35;;;;;;;4.85;2.60;;;;;;;5.24;64.47;102255.50;5029503;28;20025;-46
2023/04/19 06:55:00;;;;;;;11.68;3.40;;;;;;;5.27;63.18;102260.75;5031976;28;20025;-46
2023/04/19 06:57:26;;;;;;;8.52;2.25;;;;;;;5.32;63.50;102252.91;5031923;28;20021;-46
2023/04/19 06:59:53;;;;;;;5.60;2.85;;;;;;;5.39;62.46;102244.16;5031893;28;20408;-46
2023/04/19 07:02:18;;;;;;;9.82;2.38;;;;;;;5.46;62.65;102243.28;5029959;28;20032;-47
2023/04/19 07:04:44;;;;;;;6.90;3.05;;;;;;;5.52;61.74;102234.53;5041483;28;20030;-47
2023/04/19 07:07:10;;;;;;;6.05;2.17;;;;;;;5.62;61.63;102238.91;5041741;28;20025;-47
2023/04/19 07:09:35;;;;;;;6.22;3.08;;;;;;;5.76;60.97;102235.38;5042753;28;20064;-48
2023/04/19 07:12:01;;;;;;;3.60;2.47;;;;;;;5.81;60.43;102234.50;5039627;28;20074;-47
2023/04/19 07:14:26;;;;;;;4.55;2.60;;;;;;;5.87;59.64;102231.00;5041059;28;20041;-47
2023/04/19 07:16:52;;;;;;;7.13;2.95;;;;;;;5.95;59.65;102229.22;5040913;28;20025;-47
2023/04/19 07:19:19;;;;;;;10.57;4.68;;;;;;;6.06;58.40;102219.59;5038857;28;20456;-47
2023/04/19 07:21:44;;;;;;;7.38;3.20;;;;;;;6.13;58.72;102211.69;5037860;28;20035;-46
2023/04/19 07:24:10;;;;;;;6.20;2.30;;;;;;;6.12;57.61;102209.94;5041755;28;20116;-48
2023/04/19 07:26:35;;;;;;;4.93;2.40;;;;;;;6.25;57.81;102216.88;5040880;28;20024;-46
2023/04/19 07:29:01;;;;;;;4.95;2.35;;;;;;;6.33;57.09;102209.84;5045581;28;20033;-46
2023/04/19 07:31:27;;;;;;;10.00;2.90;;;;;;;6.38;57.02;102210.69;5036414;28;20085;-48
2023/04/19 07:33:52;;;;;;;8.43;2.08;;;;;;;6.60;55.73;102207.94;5034099;28;20034;-47
2023/04/19 07:36:18;;;;;;;7.65;2.50;;;;;;;6.73;55.36;102199.09;5028830;28;20029;-47
2023/04/19 07:38:43;;;;;;;6.85;3.05;;;;;;;6.84;55.08;102206.94;5039556;28;20465;-47
2023/04/19 07:41:09;;;;;;;5.95;2.67;;;;;;;6.86;55.55;102199.91;5043650;28;20021;-47
2023/04/19 07:43:35;;;;;;;7.47;2.20;;;;;;;7.00;55.30;102199.81;5044641;28;20033;-47
2023/04/19 07:46:00;;;;;;;8.68;2.92;;;;;;;7.03;54.50;102199.78;5040860;28;20934;-47
2023/04/19 07:48:26;;;;;;;5.50;2.60;;;;;;;7.20;55.60;102198.78;5038686;28;20056;-47
2023/04/19 07:50:51;;;;;;;5.07;2.05;;;;;;;7.28;53.04;102181.16;5031272;28;20021;-47
2023/04/19 07:53:17;;;;;;;5.00;2.40;;;;;;;7.40;51.97;102190.69;5028495;28;20044;-48
2023/04/19 07:55:43;;;;;;;7.43;2.60;;;;;;;7.51;52.70;102188.84;5022636;28;20363;-47
2023/04/19 07:58:08;;;;;;;6.18;2.20;;;;;;;7.54;52.20;102184.41;5024288;28;20137;-47
2023/04/19 08:00:35;;;;;;;4.40;2.65;;;;;;;7.62;51.37;102183.47;5030541;28;20061;-47
2023/04/19 08:03:01;;;;;;;7.35;2.60;;;;;;;7.68;51.64;102186.03;5024109;28;20041;-47
2023/04/19 08:05:26;;;;;;;5.95;2.40;;;;;;;7.76;50.33;102168.38;5040781;28;20033;-48
2023/04/19 08:07:52;;;;;;;7.18;2.50;;;;;;;7.81;49.29;102161.31;5027675;28;20036;-48
2023/04/19 08:10:18;;;;;;;8.52;2.92;;;;;;;7.86;49.70;102154.25;5040274;28;20068;-46
2023/04/19 08:12:43;;;;;;;3.78;2.45;;;;;;;7.92;49.03;102158.56;5026338;28;20073;-46
2023/04/19 08:15:09;;;;;;;7.65;2.38;;;;;;;7.94;49.08;102161.16;5038698;28;20108;-47
2023/04/19 08:17:34;;;;;;;7.10;2.13;;;;;;;8.19;49.60;102161.72;5035589;28;20061;-47
2023/04/19 08:20:00;;;;;;;7.75;2.42;;;;;;;8.41;47.43;102157.03;5033592;28;20078;-48
2023/04/19 08:22:25;;;;;;;14.05;3.33;;;;;;;8.45;47.59;102158.75;5034151;28;20029;-49
2023/04/19 08:24:51;;;;;;;6.18;2.15;;;;;;;8.33;46.88;102143.09;5033522;28;20102;-48
2023/04/19 08:27:17;;;;;;;7.53;2.10;;;;;;;8.45;46.96;102154.38;5030547;28;20032;-47
2023/04/19 08:29:43;;;;;;;5.53;1.83;;;;;;;8.59;47.03;102146.25;5038535;28;20040;-48
2023/04/19 08:32:10;;;;;;;4.88;2.03;;;;;;;8.75;46.54;102151.31;5029562;28;20070;-48
2023/04/19 08:34:36;;;;;;;8.55;3.05;;;;;;;8.80;46.21;102149.47;5025442;28;20101;-48
2023/04/19 08:37:02;;;;;;;7.03;2.45;;;;;;;8.71;45.05;102144.31;5026945;28;20168;-48
2023/04/19 08:39:28;;;;;;;3.15;2.00;;;;;;;8.78;45.65;102140.72;5026480;28;20033;-48
2023/04/19 08:41:55;;;;;;;8.07;2.50;;;;;;;8.96;45.07;102135.13;5017454;28;20025;-47
2023/04/19 08:44:21;;;;;;;4.60;2.40;;;;;;;8.97;43.81;102134.25;5023837;28;20028;-47
2023/04/19 08:46:47;;;;;;;6.57;2.30;;;;;;;9.02;42.89;102122.72;5037429;28;20033;-47
2023/04/19 08:49:13;;;;;;;9.07;3.08;;;;;;;9.09;42.74;102125.25;5026401;28;20048;-47
2023/04/19 08:51:39;;;;;;;5.70;2.22;;;;;;;9.18;43.95;102140.91;5033394;28;20037;-47
2023/04/19 08:54:06;;;;;;;6.10;2.05;;;;;;;9.21;43.27;102126.78;5032490;28;20040;-47
2023/04/19 08:56:32;;;;;;;4.35;2.60;;;;;;;9.36;43.53;102144.09;5032344;28;20025;-47
2023/04/19 08:58:57;;;;;;;5.93;2.58;;;;;;;9.30;42.05;102126.63;5038687;28;20435;-47
2023/04/19 09:01:22;;;;;;;7.13;3.10;;;;;;;9.55;42.12;102128.81;5023087;28;20042;-48
2023/04/19 09:03:48;;;;;;;5.55;2.47;;;;;;;9.63;41.95;102126.00;5021219;28;20045;-47
2023/04/19 09:06:13;;;;;;;4.82;2.58;;;;;;;9.71;41.76;102130.25;5033708;28;20033;-49
2023/04/19 09:08:40;;;;;;;6.70;2.55;;;;;;;9.94;41.54;102110.41;5033626;28;20042;-48
2023/04/19 09:11:05;;;;;;;10.65;3.63;;;;;;;10.20;41.00;102108.94;5032324;28;20071;-48
2023/04/19 09:13:31;;;;;;;8.55;3.00;;;;;;;10.00;41.04;102109.41;5027327;28;20405;-48
2023/04/19 09:15:59;;;;;;;6.85;2.75;;;;;;;10.17;40.97;102109.00;5029226;28;20036;-48
2023/04/19 09:18:24;;;;;;;10.25;2.90;;;;;;;9.96;41.13;102113.88;5015127;28;20029;-48
2023/04/19 09:20:55;;;;;;;6.85;2.22;;;;;;;10.11;40.79;102116.19;5024356;28;20032;-48
2023/04/19 09:23:24;;;;;;;5.18;2.30;;;;;;;10.10;41.06;102095.97;5018900;28;20051;-47
2023/04/19 09:26:00;;;;;;;4.53;2.33;;;;;;;9.98;41.70;102090.94;5030370;28;20044;-47
2023/04/19 09:28:29;;;;;;;4.53;2.83;;;;;;;10.10;41.26;102085.41;5034057;28;20104;-48
2023/04/19 09:30:55;;;;;;;5.60;2.50;;;;;;;10.21;41.31;102086.91;5024295;28;20037;-47
2023/04/19 09:33:35;;;;;;;3.85;2.38;;;;;;;10.03;41.58;102067.06;5040403;28;20048;-46
2023/04/19 09:36:00;;;;;;;12.23;2.70;;;;;;;10.16;41.00;102063.25;5030834;28;20442;-48
2023/04/19 09:38:26;;;;;;;5.90;3.25;;;;;;;10.19;40.91;102059.69;5032710;28;20112;-47
2023/04/19 09:40:52;;;;;;;5.10;2.33;;;;;;;10.29;41.04;102064.69;5023089;28;20119;-48
2023/04/19 09:43:26;;;;;;;5.40;2.72;;;;;;;10.27;40.90;102060.38;5042214;28;20064;-48
2023/04/19 09:45:52;;;;;;;7.05;3.65;;;;;;;10.56;41.48;102056.16;5017006;28;20052;-47
2023/04/19 09:48:17;;;;;;;7.97;2.72;;;;;;;10.41;39.90;102053.00;5026855;28;20029;-48
2023/04/19 09:50:59;;;;;;;5.63;2.53;;;;;;;10.33;40.24;102059.38;5023756;28;20034;-48
2023/04/19 09:53:25;;;;;;;;;;;;;;;10.16;40.38;102039.47;5030637;28;20017;-47
2023/04/19 09:55:51;;;;;;;7.78;2.75;;;;;;;10.34;39.72;102055.84;5028292;28;19921;-49
2023/04/19 09:58:18;;;;;;;4.05;2.50;;;;;;;10.42;38.18;102041.50;5033575;28;20160;-48
2023/04/19 10:00:46;;;;;;;8.98;3.13;;;;;;;10.73;39.35;102048.69;5025490;28;20038;-46
2023/04/19 10:03:12;;;;;;;7.13;3.30;;;;;;;10.69;37.90;102041.75;5021489;28;20029;-48
2023/04/19 10:05:41;;;;;;;9.02;4.30;;;;;;;10.23;39.14;102025.22;5036052;28;20025;-49
2023/04/19 10:08:08;;;;;;;10.98;3.33;;;;;;;10.13;39.85;102039.53;5043962;28;20354;-48
2023/04/19 10:10:34;;;;;;;5.57;2.92;;;;;;;10.05;39.89;102039.72;5036395;28;20025;-49
2023/04/19 10:13:01;;;;;;;5.75;2.33;;;;;;;10.16;39.71;102028.03;5036915;28;20049;-48
2023/04/19 10:15:28;;;;;;;5.20;2.53;;;;;;;10.42;39.82;102028.28;5035569;28;20021;-49
2023/04/19 10:17:53;;;;;;;5.25;3.28;;;;;;;10.60;38.38;102018.19;5030923;28;20068;-48
2023/04/19 10:20:31;;;;;;;9.90;3.78;;;;;;;10.90;38.57;102018.28;5045543;28;20056;-49
2023/04/19 10:22:57;;;;;;;9.75;3.38;;;;;;;10.62;37.93;102008.41;5036459;28;20053;-48
2023/04/19 10:25:29;;;;;;;7.60;2.40;;;;;;;11.11;37.16;102017.69;5036282;28;20057;-47
2023/04/19 10:27:56;;;;;;;8.35;2.60;;;;;;;11.11;37.62;102012.38;5034358;28;20337;-48
2023/04/19 10:30:23;;;;;;;6.70;3.10;;;;;;;10.74;37.29;102002.81;5037607;28;20034;-48
2023/04/19 10:32:59;;;;;;;7.82;3.20;;;;;;;10.53;36.79;101987.53;5023365;28;20026;-49
2023/04/19 10:35:36;;;;;;;7.50;3.10;;;;;;;10.60;37.39;102007.59;5024117;28;20040;-48
2023/04/19 10:38:11;;;;;;;7.25;2.58;;;;;;;10.97;37.58;102014.56;5012136;28;20409;-48
2023/04/19 10:41:02;;;;;;;8.32;2.75;;;;;;;11.18;37.35;101998.09;5040036;28;20026;-48
2023/04/19 10:43:34;;;;;;;;;;;;;;;11.31;37.20;101987.13;5026423;28;20112;-47
2023/04/19 10:46:12;;;;;;;8.30;3.13;;;;;;;11.13;36.21;101970.00;5029790;28;19987;-48
2023/04/19 10:48:42;;;;;;;7.38;2.83;;;;;;;11.13;36.79;101989.44;5025505;28;20028;-53
2023/04/19 10:51:17;;;;;;;7.35;3.10;;;;;;;11.64;35.46;101979.09;5027173;28;20040;-48
2023/04/19 10:53:49;;;;;;;7.43;3.38;;;;;;;12.13;35.29;101980.25;5024399;28;20481;-47
2023/04/19 10:56:38;;;;;;;8.90;3.67;;;;;;;12.89;34.33;101978.53;5028835;28;20041;-47
2023/04/19 10:59:14;;;;;;;9.30;3.13;;;;;;;12.80;34.76;101974.44;5025301;28;20099;-48
2023/04/19 11:01:44;;;;;;;5.57;2.97;;;;;;;12.50;34.92;101971.06;5026591;28;20041;-48
2023/04/19 11:04:14;;;;;;;8.05;2.78;;;;;;;13.70;32.87;101976.47;5029277;28;20143;-48
2023/04/19 11:06:50;;;;;;;5.38;3.25;;;;;;;13.62;32.67;101978.53;5045752;28;20464;-48
2023/04/19 11:09:27;;;;;;;6.82;2.70;;;;;;;13.86;32.45;101980.25;5038202;28;20036;-47
2023/04/19 11:11:56;;;;;;;7.75;3.13;;;;;;;14.03;32.00;101974.22;5025203;28;20029;-48
2023/04/19 11:14:21;;;;;;;5.88;2.88;;;;;;;14.22;32.52;101973.47;5029600;28;20028;-49
2023/04/19 11:16:47;;;;;;;10.60;3.28;;;;;;;13.04;34.09;101970.03;5026973;28;20013;-47
2023/04/19 11:19:16;;;;;;;5.40;2.88;;;;;;;14.06;32.55;101967.94;5024111;28;20037;-47
2023/04/19 11:21:41;;;;;;;10.88;2.95;;;;;;;13.44;32.67;101925.22;5027318;28;20103;-47
2023/04/19 11:24:08;;;;;;;10.30;3.28;;;;;;;13.02;33.44;101963.91;5028965;28;20030;-47
2023/04/19 11:26:34;;;;;;;7.03;3.13;;;;;;;13.18;33.17;101963.34;5021963;28;20030;-46
2023/04/19 11:28:59;;;;;;;10.38;2.88;;;;;;;13.42;32.95;101939.47;5026730;28;20387;-48